Time;durP1;ratioP1;P1;durP2;ratioP2;P2;SDS_P1;SDS_P2;PMS_P1;PMS_P2;Temp;Humidity;BMP_temperature;BMP_pressure;BME280_temperature;BME280_humidity;BME280_pressure;Samples;Min_cycle;Max_cycle;Signal;HPM_P1;HPM_P2
2022/07/27 00:01:45;;;;;;;7.25;1.67;;;;;;;17.73;55.07;101218.41;5070607;28;20048;-72
2022/07/27 00:04:12;;;;;;;5.22;1.50;;;;;;;17.89;54.67;101213.63;5067241;28;20044;-72
2022/07/27 00:06:38;;;;;;;3.42;1.13;;;;;;;18.07;53.92;101213.22;5074487;28;20048;-72
2022/07/27 00:09:04;;;;;;;5.68;1.02;;;;;;;17.84;54.81;101209.63;5051879;28;20544;-72
2022/07/27 00:11:31;;;;;;;5.45;1.40;;;;;;;17.91;55.12;101209.06;5057313;28;20553;-72
2022/07/27 00:13:59;;;;;;;3.05;1.00;;;;;;;17.96;54.96;101209.53;5063584;28;20049;-72
2022/07/27 00:16:25;;;;;;;6.35;1.27;;;;;;;17.59;55.53;101199.16;5054516;28;20550;-72
2022/07/27 00:18:51;;;;;;;6.32;1.20;;;;;;;17.19;57.09;101207.28;5056438;28;20049;-72
2022/07/27 00:21:18;;;;;;;5.97;1.40;;;;;;;17.20;57.88;101214.31;5063272;28;20455;-72
2022/07/27 00:23:44;;;;;;;3.75;1.13;;;;;;;17.43;57.00;101202.03;5074142;27;20259;-72
2022/07/27 00:26:10;;;;;;;7.00;1.25;;;;;;;17.23;57.83;101214.06;5087537;27;20044;-72
2022/07/27 00:28:37;;;;;;;7.45;1.65;;;;;;;17.13;58.56;101217.50;5088607;27;20044;-72
2022/07/27 00:31:05;;;;;;;3.42;1.02;;;;;;;17.09;58.52;101216.88;5086966;27;20058;-72
2022/07/27 00:33:32;;;;;;;4.78;1.00;;;;;;;16.93;59.29;101211.81;5066231;28;20049;-73
2022/07/27 00:35:58;;;;;;;4.57;1.20;;;;;;;16.92;59.35;101222.53;5066946;28;20060;-72
2022/07/27 00:38:24;;;;;;;6.10;1.42;;;;;;;17.06;59.20;101227.69;5065899;28;20062;-72
2022/07/27 00:40:51;;;;;;;4.43;1.38;;;;;;;17.26;58.66;101218.28;5066627;28;20066;-72
2022/07/27 00:43:17;;;;;;;6.22;1.50;;;;;;;17.18;59.12;101220.69;5067258;28;20048;-73
2022/07/27 00:45:44;;;;;;;4.45;1.25;;;;;;;17.42;57.83;101225.06;5065677;28;20044;-72
2022/07/27 00:48:12;;;;;;;8.82;1.40;;;;;;;17.49;58.37;101221.00;5066652;28;20052;-72
2022/07/27 00:50:41;;;;;;;7.88;1.50;;;;;;;17.68;57.81;101224.97;5078609;28;20045;-72
2022/07/27 00:53:08;;;;;;;7.88;1.33;;;;;;;18.07;55.35;101223.84;5064885;28;20053;-72
2022/07/27 00:55:35;;;;;;;3.90;1.42;;;;;;;18.05;55.65;101225.75;5056970;28;20589;-72
2022/07/27 00:58:03;;;;;;;7.05;1.35;;;;;;;18.24;55.00;101234.03;5047625;28;20463;-72
2022/07/27 01:00:30;;;;;;;6.32;1.05;;;;;;;18.21;54.50;101224.50;5067004;28;20052;-73
2022/07/27 01:02:56;;;;;;;4.30;1.15;;;;;;;18.16;54.18;101225.78;5063928;28;20048;-73
2022/07/27 01:05:24;;;;;;;4.32;1.10;;;;;;;18.32;53.73;101221.88;5062337;28;20045;-72
2022/07/27 01:07:50;;;;;;;6.97;1.42;;;;;;;18.51;53.92;101226.66;5046991;28;20117;-72
2022/07/27 01:10:17;;;;;;;4.65;1.27;;;;;;;18.61;53.23;101222.31;5055235;28;20041;-72
2022/07/27 01:12:45;;;;;;;11.38;2.17;;;;;;;18.42;53.65;101228.16;5059671;28;20453;-72
2022/07/27 01:15:12;;;;;;;3.90;1.30;;;;;;;18.36;53.36;101233.09;5071441;28;20052;-73
2022/07/27 01:17:38;;;;;;;6.25;1.85;;;;;;;18.71;52.02;101243.69;5062007;28;20045;-73
2022/07/27 01:20:06;;;;;;;3.75;1.10;;;;;;;18.41;53.41;101245.03;5067488;28;20109;-73
2022/07/27 01:22:34;;;;;;;7.68;1.15;;;;;;;18.43;52.83;101240.47;5056645;28;20085;-73
2022/07/27 01:25:00;;;;;;;7.60;1.30;;;;;;;17.93;54.28;101243.44;5065620;28;20049;-73
2022/07/27 01:27:26;;;;;;;6.55;1.23;;;;;;;17.83;54.81;101237.13;5067006;28;20040;-73
2022/07/27 01:29:53;;;;;;;6.95;1.20;;;;;;;18.14;53.75;101233.03;5065700;28;20064;-72
2022/07/27 01:32:19;;;;;;;4.03;1.20;;;;;;;18.19;53.75;101222.91;5066152;28;20584;-72
2022/07/27 01:34:45;;;;;;;6.38;1.33;;;;;;;18.22;53.22;101239.44;5066937;28;20045;-73
2022/07/27 01:37:12;;;;;;;5.05;1.10;;;;;;;18.30;52.56;101236.19;5065095;28;20045;-73
2022/07/27 01:39:39;;;;;;;3.70;1.20;;;;;;;17.81;54.25;101236.41;5065760;28;20066;-73
2022/07/27 01:42:06;;;;;;;9.70;1.10;;;;;;;17.63;54.39;101237.72;5071345;28;20040;-73
2022/07/27 01:44:32;;;;;;;10.80;2.95;;;;;;;17.67;54.54;101229.44;5078785;28;20623;-72
2022/07/27 01:46:59;;;;;;;6.82;1.48;;;;;;;17.57;54.74;101232.88;5068631;28;20483;-72
2022/07/27 01:49:25;;;;;;;4.03;1.40;;;;;;;17.50;55.29;101222.69;5065735;28;20114;-72
2022/07/27 01:51:51;;;;;;;4.18;1.13;;;;;;;17.61;55.01;101227.25;5064858;28;20447;-73
2022/07/27 01:54:18;;;;;;;6.22;1.00;;;;;;;17.79;54.14;101233.84;5065936;28;20118;-73
2022/07/27 01:56:46;;;;;;;3.30;1.10;;;;;;;17.95;53.62;101228.25;5068662;28;20048;-73
2022/07/27 01:59:12;;;;;;;4.10;1.40;;;;;;;17.83;54.53;101234.47;5077820;28;20094;-72
2022/07/27 02:01:38;;;;;;;5.72;1.30;;;;;;;17.83;53.73;101235.31;5080831;28;20102;-72
2022/07/27 02:04:05;;;;;;;6.20;1.20;;;;;;;17.68;54.16;101235.59;5075469;28;20044;-72
2022/07/27 02:06:31;;;;;;;4.13;1.00;;;;;;;17.77;54.02;101230.47;5066077;28;20442;-72
2022/07/27 02:08:57;;;;;;;5.88;1.20;;;;;;;17.47;55.03;101225.56;5064670;28;20049;-72
2022/07/27 02:14:09;;;;;;;4.40;0.90;;;;;;;17.31;55.84;101232.94;5084420;28;20173;-73
2022/07/27 02:16:35;;;;;;;2.05;0.90;;;;;;;17.29;55.62;101231.34;5056228;28;20127;-73
2022/07/27 02:19:02;;;;;;;5.40;1.10;;;;;;;17.17;55.95;101230.44;5063812;28;20137;-73
2022/07/27 02:21:28;;;;;;;5.40;1.10;;;;;;;17.00;56.38;101238.69;5070541;28;20622;-73
2022/07/27 02:23:54;;;;;;;7.57;1.80;;;;;;;16.86;57.09;101237.03;5065910;28;20056;-73
2022/07/27 02:26:21;;;;;;;5.75;1.65;;;;;;;17.00;56.84;101231.59;5064739;28;20117;-72
2022/07/27 02:28:47;;;;;;;8.20;1.20;;;;;;;17.10;56.79;101228.31;5085271;28;20035;-72
2022/07/27 02:31:15;;;;;;;5.72;1.10;;;;;;;16.80;57.78;101240.13;5074887;28;20093;-72
2022/07/27 02:33:41;;;;;;;6.72;1.10;;;;;;;16.49;58.55;101236.03;5073852;28;20462;-72
2022/07/27 02:36:08;;;;;;;4.45;1.20;;;;;;;16.66;58.57;101244.69;5080701;28;20552;-72
2022/07/27 02:38:34;;;;;;;3.65;1.10;;;;;;;16.75;58.67;101242.22;5069144;28;20551;-72
2022/07/27 02:41:00;;;;;;;3.63;1.13;;;;;;;17.09;56.70;101243.38;5063233;28;20044;-72
2022/07/27 02:43:27;;;;;;;6.28;1.45;;;;;;;16.78;57.94;101244.66;5054054;28;20110;-72
2022/07/27 02:45:53;;;;;;;6.43;1.20;;;;;;;17.16;56.25;101247.28;5069549;28;20439;-72
2022/07/27 02:48:21;;;;;;;6.38;1.27;;;;;;;17.27;55.91;101251.81;5064243;28;20044;-73
2022/07/27 02:50:47;;;;;;;7.10;1.13;;;;;;;17.26;55.92;101244.81;5072180;28;20051;-73
2022/07/27 02:53:14;;;;;;;2.65;0.93;;;;;;;16.90;57.35;101242.97;5088897;28;20108;-73
2022/07/27 02:55:40;;;;;;;3.05;1.10;;;;;;;16.87;57.54;101240.53;5085953;28;20469;-72
2022/07/27 02:58:07;;;;;;;2.97;1.05;;;;;;;16.85;57.73;101239.81;5068799;28;20381;-72
2022/07/27 03:00:33;;;;;;;2.83;0.90;;;;;;;17.05;56.91;101231.28;5069269;28;20036;-73
2022/07/27 03:03:00;;;;;;;5.60;1.60;;;;;;;17.33;55.91;101233.66;5084060;28;20046;-73
2022/07/27 03:05:28;;;;;;;4.80;1.30;;;;;;;17.16;56.61;101236.66;5072040;28;20037;-73
2022/07/27 03:07:54;;;;;;;6.88;1.40;;;;;;;17.09;56.75;101239.88;5059826;28;20048;-73
2022/07/27 03:10:20;;;;;;;9.10;1.52;;;;;;;17.08;56.82;101235.50;5058162;28;20124;-73
2022/07/27 03:12:47;;;;;;;7.13;1.40;;;;;;;17.16;56.51;101234.03;5064703;28;20070;-73
2022/07/27 03:15:13;;;;;;;4.45;1.45;;;;;;;16.79;57.60;101232.25;5065143;28;20116;-72
2022/07/27 03:17:39;;;;;;;3.95;1.00;;;;;;;16.31;59.66;101232.00;5065504;28;20483;-72
2022/07/27 03:20:07;;;;;;;7.57;1.10;;;;;;;16.50;59.04;101243.03;5062698;28;20469;-72
2022/07/27 03:22:35;;;;;;;8.30;1.38;;;;;;;16.35;59.81;101236.16;5078779;28;20504;-73
2022/07/27 03:25:01;;;;;;;5.43;1.42;;;;;;;16.45;59.30;101237.19;5077779;28;20654;-72
2022/07/27 03:27:28;;;;;;;3.80;0.93;;;;;;;16.61;59.17;101247.63;5074497;28;20585;-72
2022/07/27 03:29:55;;;;;;;6.47;1.23;;;;;;;16.67;58.87;101239.25;5075315;28;20052;-73
2022/07/27 03:32:21;;;;;;;6.57;1.20;;;;;;;16.39;59.93;101242.06;5061558;28;20059;-73
2022/07/27 03:34:47;;;;;;;3.55;1.10;;;;;;;16.46;59.86;101249.50;5067795;28;20048;-72
2022/07/27 03:37:15;;;;;;;3.60;1.30;;;;;;;16.27;60.33;101242.91;5078235;28;20099;-73
2022/07/27 03:39:43;;;;;;;4.57;1.40;;;;;;;16.51;60.00;101247.41;5065110;28;20052;-72
2022/07/27 03:42:11;;;;;;;3.60;1.02;;;;;;;16.50;59.97;101242.19;5067995;28;20460;-73
2022/07/27 03:44:37;;;;;;;9.05;1.50;;;;;;;16.19;61.39;101242.56;5049183;28;20044;-72
2022/07/27 03:47:04;;;;;;;5.18;1.20;;;;;;;16.06;61.66;101246.03;5055738;28;20395;-73
2022/07/27 03:49:30;;;;;;;8.63;1.30;;;;;;;16.11;61.31;101248.38;5047531;28;20045;-73
2022/07/27 03:51:57;;;;;;;5.38;1.95;;;;;;;15.98;62.37;101239.56;5076693;28;20040;-72
2022/07/27 03:54:23;;;;;;;4.85;1.77;;;;;;;16.17;61.62;101247.97;5082027;28;20076;-73
2022/07/27 03:56:51;;;;;;;3.83;1.05;;;;;;;16.18;61.61;101240.88;5068257;28;20101;-73
2022/07/27 03:59:17;;;;;;;6.00;1.50;;;;;;;16.06;62.60;101245.19;5067350;28;20492;-72
2022/07/27 04:01:44;;;;;;;9.13;1.58;;;;;;;15.93;62.88;101247.78;5070310;28;20074;-73
2022/07/27 04:04:11;;;;;;;6.05;1.30;;;;;;;15.92;63.51;101255.84;5066147;28;20052;-73
2022/07/27 04:06:37;;;;;;;7.65;1.67;;;;;;;15.85;63.77;101251.91;5077223;28;20040;-73
2022/07/27 04:09:04;;;;;;;4.13;1.40;;;;;;;16.32;61.72;101257.53;5052272;28;20551;-72
2022/07/27 04:11:30;;;;;;;8.27;1.20;;;;;;;16.63;60.37;101266.91;5052559;28;20471;-73
2022/07/27 04:13:58;;;;;;;10.30;1.42;;;;;;;16.73;60.49;101259.19;5065365;28;20074;-73
2022/07/27 04:16:24;;;;;;;8.25;1.30;;;;;;;16.49;61.05;101251.94;5078310;28;20048;-73
2022/07/27 04:18:52;;;;;;;5.38;1.42;;;;;;;16.44;60.95;101245.28;5085703;28;20407;-73
2022/07/27 04:21:18;;;;;;;9.52;1.40;;;;;;;16.62;60.70;101253.78;5083496;28;20047;-73
2022/07/27 04:23:45;;;;;;;5.63;1.55;;;;;;;16.24;61.85;101245.75;5067661;28;20500;-73
2022/07/27 04:26:11;;;;;;;5.90;1.13;;;;;;;16.38;61.35;101250.97;5066381;28;20098;-73
2022/07/27 04:28:37;;;;;;;11.25;1.83;;;;;;;16.16;62.26;101246.25;5067043;28;20094;-73
2022/07/27 04:31:05;;;;;;;8.40;1.55;;;;;;;16.07;62.57;101241.59;5066727;28;20044;-73
2022/07/27 04:33:31;;;;;;;9.15;1.08;;;;;;;16.02;63.40;101239.25;5066186;27;20052;-72
2022/07/27 04:35:58;;;;;;;5.20;1.40;;;;;;;16.49;61.51;101249.28;5067115;27;20064;-72
2022/07/27 04:38:24;;;;;;;5.38;1.15;;;;;;;16.93;60.03;101258.63;5076278;28;20101;-73
2022/07/27 04:40:50;;;;;;;6.93;1.55;;;;;;;17.12;59.33;101260.84;5067852;28;20447;-72
2022/07/27 04:43:18;;;;;;;7.70;1.10;;;;;;;17.01;59.59;101261.59;5066481;28;20047;-72
2022/07/27 04:45:44;;;;;;;10.18;1.45;;;;;;;17.24;59.63;101259.97;5046921;28;20049;-72
2022/07/27 04:48:12;;;;;;;8.23;1.52;;;;;;;17.37;59.72;101258.97;5047536;28;20110;-72
2022/07/27 04:50:40;;;;;;;10.25;1.40;;;;;;;17.36;58.54;101262.63;5058986;28;20654;-72
2022/07/27 04:53:06;;;;;;;3.17;1.10;;;;;;;17.46;58.67;101262.78;5047204;28;20480;-72
2022/07/27 04:55:33;;;;;;;6.80;1.17;;;;;;;17.32;59.23;101269.09;5046765;28;20049;-72
2022/07/27 04:57:59;;;;;;;3.60;1.13;;;;;;;17.56;58.32;101274.41;5047238;28;20041;-72
2022/07/27 05:00:25;;;;;;;6.07;1.75;;;;;;;17.83;57.49;101269.81;5048199;28;20521;-72
2022/07/27 05:02:52;;;;;;;8.30;1.15;;;;;;;17.74;58.19;101262.50;5046985;28;20048;-72
2022/07/27 05:05:20;;;;;;;3.97;1.08;;;;;;;17.84;58.53;101268.00;5047447;28;20041;-72
2022/07/27 05:07:46;;;;;;;4.60;1.67;;;;;;;17.93;58.65;101267.31;5051938;28;20106;-72
2022/07/27 05:10:12;;;;;;;4.88;1.17;;;;;;;17.83;58.59;101261.00;5051373;28;20052;-72
2022/07/27 05:12:39;;;;;;;6.85;1.60;;;;;;;18.04;58.64;101270.00;5052463;28;20593;-73
2022/07/27 05:15:06;;;;;;;6.13;1.65;;;;;;;18.00;58.59;101272.03;5050105;28;20044;-72
2022/07/27 05:17:32;;;;;;;3.97;1.20;;;;;;;18.12;57.66;101277.41;5061052;28;20399;-72
2022/07/27 05:20:00;;;;;;;5.20;1.33;;;;;;;18.45;57.32;101283.69;5059805;28;20450;-72
2022/07/27 05:22:28;;;;;;;8.18;1.13;;;;;;;19.10;55.34;101285.75;5077504;28;20090;-73
2022/07/27 05:24:54;;;;;;;2.90;1.00;;;;;;;18.88;55.68;101283.91;5079595;28;20041;-73
2022/07/27 05:27:20;;;;;;;7.20;1.40;;;;;;;19.08;55.25;101285.03;5078975;28;20040;-73
2022/07/27 05:29:47;;;;;;;7.05;1.52;;;;;;;19.35;54.44;101284.66;5057824;28;20044;-72
2022/07/27 05:32:13;;;;;;;5.53;1.15;;;;;;;19.55;53.33;101293.75;5066026;28;20094;-72
2022/07/27 05:34:40;;;;;;;5.80;1.15;;;;;;;19.82;52.76;101291.50;5066694;28;20048;-72
2022/07/27 05:37:07;;;;;;;9.27;2.03;;;;;;;19.19;54.92;101293.00;5065220;28;20048;-70
2022/07/27 05:39:34;;;;;;;6.43;1.25;;;;;;;18.75;55.96;101296.47;5063429;28;20045;-70
2022/07/27 05:42:01;;;;;;;6.00;1.73;;;;;;;18.78;56.59;101298.03;5059804;28;20048;-70
2022/07/27 05:44:27;;;;;;;8.18;1.60;;;;;;;18.74;56.64;101313.34;5065777;28;20043;-70
2022/07/27 05:46:54;;;;;;;6.45;1.30;;;;;;;18.80;56.94;101304.09;5059808;28;20081;-70
2022/07/27 05:49:20;;;;;;;3.65;0.90;;;;;;;18.65;57.16;101307.91;5066077;28;20040;-70
2022/07/27 05:51:47;;;;;;;4.57;1.20;;;;;;;18.72;57.32;101302.00;5066133;28;20626;-70
2022/07/27 05:54:13;;;;;;;7.43;1.10;;;;;;;18.81;56.44;101300.44;5063671;28;20089;-70
2022/07/27 05:56:41;;;;;;;3.58;0.90;;;;;;;19.17;55.08;101316.22;5065898;28;20134;-70
2022/07/27 05:59:07;;;;;;;3.15;1.00;;;;;;;18.98;55.71;101304.47;5064808;28;20532;-70
2022/07/27 06:01:34;;;;;;;6.28;1.05;;;;;;;18.85;55.95;101310.72;5064923;28;20045;-70
2022/07/27 06:04:00;;;;;;;5.43;1.55;;;;;;;19.55;54.06;101310.53;5066509;28;20053;-70
2022/07/27 06:09:10;;;;;;;9.88;1.30;;;;;;;19.43;54.42;101312.38;5062825;28;20510;-71
2022/07/27 06:11:37;;;;;;;10.82;1.90;;;;;;;19.86;53.60;101314.22;5057047;28;20094;-70
2022/07/27 06:14:05;;;;;;;5.07;1.08;;;;;;;20.04;52.50;101318.03;5066163;28;20037;-71
2022/07/27 06:16:31;;;;;;;8.73;1.00;;;;;;;20.64;52.13;101316.59;5065686;28;20118;-70
2022/07/27 06:18:57;;;;;;;3.58;0.98;;;;;;;20.81;49.97;101322.19;5066212;28;20045;-70
2022/07/27 06:21:25;;;;;;;11.48;1.60;;;;;;;21.25;50.23;101329.03;5074204;28;20036;-71
2022/07/27 06:23:52;;;;;;;7.18;1.08;;;;;;;21.63;50.12;101325.69;5071261;28;20509;-70
2022/07/27 06:26:19;;;;;;;4.88;0.95;;;;;;;22.03;48.64;101312.31;5080302;28;20071;-70
2022/07/27 06:28:45;;;;;;;4.55;0.98;;;;;;;;;;5069265;28;20053;-70
2022/07/27 06:31:13;;;;;;;3.17;1.15;;;;;;;22.80;46.63;101307.78;5070919;28;20040;-70
2022/07/27 06:33:40;;;;;;;5.63;1.25;;;;;;;23.40;44.53;101324.34;5073507;28;20041;-69
2022/07/27 06:36:07;;;;;;;3.70;1.05;;;;;;;23.19;42.70;101313.03;5080366;28;20068;-69
2022/07/27 06:38:34;;;;;;;5.03;1.20;;;;;;;22.82;44.21;101321.03;5065256;28;20064;-69
2022/07/27 06:41:07;;;;;;;4.38;1.98;;;;;;;22.24;42.95;101321.06;5064503;28;20048;-69
2022/07/27 06:43:33;;;;;;;4.65;1.00;;;;;;;21.92;44.00;101323.13;5064338;28;20045;-70
2022/07/27 06:45:59;;;;;;;7.53;1.30;;;;;;;21.63;44.61;101328.34;5073795;28;20048;-70
2022/07/27 06:48:27;;;;;;;5.85;1.00;;;;;;;21.75;45.41;101324.59;5076171;28;20045;-70
2022/07/27 06:50:53;;;;;;;10.57;1.58;;;;;;;22.15;44.63;101316.53;5067291;28;20492;-70
2022/07/27 06:53:20;;;;;;;8.68;1.42;;;;;;;22.01;44.70;101327.63;5073644;27;20056;-70
2022/07/27 06:55:47;;;;;;;7.80;1.10;;;;;;;22.09;43.71;101324.28;5064214;28;20050;-69
2022/07/27 06:58:13;;;;;;;8.20;1.27;;;;;;;22.39;44.33;101325.97;5064338;28;20095;-69
2022/07/27 07:00:40;;;;;;;4.78;1.08;;;;;;;22.63;44.95;101329.03;5057484;28;20048;-69
2022/07/27 07:03:07;;;;;;;9.05;1.05;;;;;;;22.87;43.88;101320.59;5082734;28;20036;-70
2022/07/27 07:05:41;;;;;;;9.52;1.25;;;;;;;23.41;42.87;101325.19;5085082;28;20047;-70
2022/07/27 07:08:10;;;;;;;5.25;1.02;;;;;;;23.08;41.42;101335.47;5084991;28;20044;-70
2022/07/27 07:10:37;;;;;;;8.18;1.33;;;;;;;22.46;42.72;101329.78;5066417;28;20048;-70
2022/07/27 07:13:05;;;;;;;4.75;1.08;;;;;;;22.87;43.06;101326.78;5078454;28;20041;-70
2022/07/27 07:15:31;;;;;;;5.18;1.00;;;;;;;23.25;41.18;101323.13;5065546;28;20048;-71
2022/07/27 07:17:58;;;;;;;5.13;1.20;;;;;;;22.97;40.83;101327.59;5062766;28;20146;-71
2022/07/27 07:20:24;;;;;;;7.47;1.25;;;;;;;22.51;42.27;101324.81;5043374;28;20048;-70
2022/07/27 07:22:52;;;;;;;5.30;1.10;;;;;;;22.29;44.21;101324.13;5069584;28;20044;-69
2022/07/27 07:25:19;;;;;;;10.73;1.20;;;;;;;22.46;43.09;101321.75;5049122;28;20048;-71
2022/07/27 07:27:45;;;;;;;6.40;1.48;;;;;;;22.34;44.57;101329.06;5071292;28;20056;-70
2022/07/27 07:30:12;;;;;;;7.18;1.33;;;;;;;22.77;45.51;101324.13;5079725;28;20668;-70
2022/07/27 07:32:38;;;;;;;5.95;1.20;;;;;;;23.15;44.34;101319.66;5081268;28;20048;-69
2022/07/27 07:35:06;;;;;;;9.30;1.35;;;;;;;23.11;43.33;101329.81;5071672;28;20044;-70
2022/07/27 07:37:33;;;;;;;8.40;1.17;;;;;;;23.04;42.93;101318.00;5065278;28;20051;-70
2022/07/27 07:40:01;;;;;;;4.07;1.00;;;;;;;23.56;42.17;101329.94;5064722;28;20079;-69
2022/07/27 07:42:28;;;;;;;7.13;1.48;;;;;;;24.24;40.13;101319.69;5083398;28;20048;-69
2022/07/27 07:44:54;;;;;;;4.60;1.30;;;;;;;23.59;38.27;101328.78;5087624;28;20491;-71
2022/07/27 07:47:21;;;;;;;3.70;1.13;;;;;;;23.15;39.11;101317.84;5077118;28;20071;-71
2022/07/27 07:49:47;;;;;;;5.22;1.45;;;;;;;23.26;39.61;101320.34;5084009;28;20040;-70
2022/07/27 07:52:14;;;;;;;13.13;1.13;;;;;;;23.69;41.09;101319.72;5077803;28;20063;-70
2022/07/27 07:54:40;;;;;;;4.90;1.08;;;;;;;24.07;39.16;101320.47;5071490;28;20118;-68
2022/07/27 07:57:08;;;;;;;5.47;1.10;;;;;;;24.66;39.91;101314.47;5054263;28;20040;-70
2022/07/27 07:59:34;;;;;;;3.15;1.10;;;;;;;25.22;37.58;101315.88;5070880;28;20114;-69
2022/07/27 08:02:02;;;;;;;3.22;0.85;;;;;;;25.86;38.55;101318.84;5063653;28;20048;-69
2022/07/27 08:04:29;;;;;;;8.23;1.10;;;;;;;25.25;35.99;101321.75;5063245;28;20094;-70
2022/07/27 08:06:55;;;;;;;7.32;1.20;;;;;;;25.45;38.09;101325.91;5064798;28;20109;-70
2022/07/27 08:09:25;;;;;;;11.00;1.23;;;;;;;25.91;37.66;101311.13;5069662;28;20041;-69
2022/07/27 08:11:52;;;;;;;5.60;1.20;;;;;;;26.41;36.23;101320.97;5056728;28;20048;-69
2022/07/27 08:14:19;;;;;;;5.82;0.93;;;;;;;26.02;34.21;101316.19;5063843;28;20041;-69
2022/07/27 08:16:46;;;;;;;5.88;1.23;;;;;;;26.24;34.47;101313.91;5079882;28;20415;-69
2022/07/27 08:19:12;;;;;;;8.45;1.15;;;;;;;26.09;33.10;101317.22;5053901;28;20044;-69
2022/07/27 08:21:38;;;;;;;5.28;1.27;;;;;;;25.84;34.55;101328.06;5067085;28;20550;-68
2022/07/27 08:24:05;;;;;;;4.63;1.10;;;;;;;25.90;33.86;101330.13;5068927;28;20048;-69
2022/07/27 08:26:32;;;;;;;6.25;0.88;;;;;;;25.86;35.48;101337.66;5083308;28;20140;-69
2022/07/27 08:28:58;;;;;;;5.28;1.00;;;;;;;26.23;32.82;101334.59;5083266;28;20385;-69
2022/07/27 08:31:26;;;;;;;4.38;1.13;;;;;;;26.68;35.26;101327.88;5066805;28;20037;-69
2022/07/27 08:33:52;;;;;;;5.93;1.30;;;;;;;26.51;33.80;101321.63;5069752;28;20188;-69
2022/07/27 08:36:19;;;;;;;10.45;1.00;;;;;;;26.10;32.09;101329.66;5068205;28;20047;-69
2022/07/27 08:38:46;;;;;;;4.45;0.90;;;;;;;25.78;34.96;101332.25;5066311;28;20557;-70
2022/07/27 08:41:14;;;;;;;4.55;0.80;;;;;;;25.50;33.88;101342.34;5068333;28;20491;-70
2022/07/27 08:43:42;;;;;;;6.65;1.00;;;;;;;24.62;35.27;101335.41;5065890;28;20048;-70
2022/07/27 08:46:10;;;;;;;3.75;0.93;;;;;;;24.77;35.60;101327.63;5063759;28;20277;-69
2022/07/27 08:48:39;;;;;;;4.15;1.13;;;;;;;24.86;36.39;101334.78;5081084;28;20044;-69
2022/07/27 08:51:06;;;;;;;4.47;1.00;;;;;;;25.30;39.61;101332.03;5086739;28;20499;-69
2022/07/27 08:53:33;;;;;;;2.65;0.90;;;;;;;24.95;33.94;101335.66;5065030;28;20711;-70
2022/07/27 08:56:00;;;;;;;4.43;1.05;;;;;;;25.31;34.10;101331.03;5050101;28;20049;-70
2022/07/27 08:58:27;;;;;;;6.00;1.15;;;;;;;25.31;33.49;101337.25;5065551;28;20054;-70
2022/07/27 09:00:54;;;;;;;4.05;1.20;;;;;;;25.80;34.98;101330.25;5055416;28;21118;-69
2022/07/27 09:03:22;;;;;;;4.03;0.98;;;;;;;25.58;34.99;101333.53;5065068;28;20068;-69
2022/07/27 09:05:51;;;;;;;4.10;0.95;;;;;;;25.06;34.91;101328.19;5072069;28;20108;-70
2022/07/27 09:08:21;;;;;;;5.07;0.80;;;;;;;24.76;36.84;101328.63;5072702;28;20050;-69
2022/07/27 09:10:47;;;;;;;4.00;1.38;;;;;;;24.73;36.31;101328.94;5065686;28;20056;-69
2022/07/27 09:13:21;;;;;;;5.07;0.90;;;;;;;24.45;36.99;101328.22;5066873;28;20044;-71
2022/07/27 09:15:50;;;;;;;6.88;1.10;;;;;;;24.44;37.85;101333.75;5068874;28;20155;-71
2022/07/27 09:18:18;;;;;;;4.93;0.90;;;;;;;23.96;35.60;101339.44;5057434;28;20040;-71
2022/07/27 09:20:45;;;;;;;7.50;0.82;;;;;;;23.75;35.60;101337.03;5065693;28;20041;-71
2022/07/27 09:23:26;;;;;;;7.75;1.20;;;;;;;23.56;35.89;101340.66;5065665;28;20101;-70
2022/07/27 09:26:12;;;;;;;12.40;1.05;;;;;;;23.89;37.25;101333.84;5072487;28;20418;-70
2022/07/27 09:28:38;;;;;;;6.10;1.33;;;;;;;24.65;34.80;101318.16;5065028;28;20040;-70
2022/07/27 09:31:06;;;;;;;5.20;1.30;;;;;;;25.26;36.11;101320.78;5064750;28;20044;-67
2022/07/27 09:33:40;;;;;;;5.30;1.10;;;;;;;25.30;34.80;101323.97;5067122;28;20044;-69
2022/07/27 09:36:10;;;;;;;7.15;1.23;;;;;;;24.88;34.40;101326.56;5065625;28;20135;-70
2022/07/27 09:38:38;;;;;;;4.53;0.98;;;;;;;24.58;34.56;101327.81;5064968;28;20573;-70
2022/07/27 09:41:08;;;;;;;5.80;1.40;;;;;;;23.80;35.26;101320.53;5071861;28;20085;-71
2022/07/27 09:43:45;;;;;;;3.97;0.98;;;;;;;24.34;35.64;101316.91;5073697;28;20063;-69
2022/07/27 09:46:12;;;;;;;3.92;1.10;;;;;;;24.76;37.02;101315.22;5073290;28;20048;-70
2022/07/27 09:48:38;;;;;;;5.82;1.23;;;;;;;24.21;35.26;101310.09;5065982;28;20506;-69
2022/07/27 09:51:07;;;;;;;4.65;1.10;;;;;;;24.31;37.10;101311.84;5047269;28;20118;-70
2022/07/27 09:53:34;;;;;;;10.93;1.05;;;;;;;24.84;37.68;101322.50;5046452;28;20040;-69
2022/07/27 09:56:06;;;;;;;7.25;1.20;;;;;;;25.63;34.97;101315.09;5044846;28;20424;-69
2022/07/27 09:58:42;;;;;;;7.80;1.65;;;;;;;26.28;34.03;101310.72;5046399;28;20045;-69
2022/07/27 10:01:09;;;;;;;4.28;1.15;;;;;;;26.97;33.76;101312.06;5063268;28;20071;-69
2022/07/27 10:03:35;;;;;;;3.80;0.82;;;;;;;26.93;31.50;101311.56;5064996;28;20118;-70
2022/07/27 10:06:03;;;;;;;5.25;0.95;;;;;;;26.74;31.65;101311.88;5094353;28;20045;-71
2022/07/27 10:08:29;;;;;;;7.75;1.48;;;;;;;25.55;32.90;101320.41;5064702;28;20059;-69
2022/07/27 10:10:56;;;;;;;4.57;1.10;;;;;;;25.13;33.49;101317.66;5047440;28;20045;-68
2022/07/27 10:13:24;;;;;;;4.10;1.20;;;;;;;24.80;34.48;101316.59;5056837;28;20051;-68
2022/07/27 10:15:51;;;;;;;4.35;1.02;;;;;;;24.10;36.85;101318.31;5061460;28;20045;-68
2022/07/27 10:18:27;;;;;;;3.03;0.80;;;;;;;23.79;36.47;101322.34;5063810;28;20048;-70
2022/07/27 10:20:56;;;;;;;3.80;0.95;;;;;;;23.95;36.87;101313.63;5065801;28;20053;-69
2022/07/27 10:23:27;;;;;;;7.22;1.00;;;;;;;23.95;35.79;101322.50;5065735;28;20084;-70
2022/07/27 10:26:16;;;;;;;5.00;1.33;;;;;;;25.03;35.50;101316.94;5064207;28;20052;-69
2022/07/27 10:28:52;;;;;;;2.28;0.77;;;;;;;25.46;36.63;101324.06;5045232;28;20045;-69
2022/07/27 10:31:21;;;;;;;7.07;2.25;;;;;;;25.97;33.58;101315.00;5067566;28;20040;-69
2022/07/27 10:33:49;;;;;;;6.30;1.10;;;;;;;26.91;33.90;101321.63;5062224;28;20048;-68
2022/07/27 10:36:18;;;;;;;4.78;1.30;;;;;;;27.69;33.13;101313.66;5064784;28;20105;-68
2022/07/27 10:38:46;;;;;;;4.80;1.15;;;;;;;27.52;29.45;101310.22;5071385;28;20045;-70
2022/07/27 10:41:25;;;;;;;4.60;0.90;;;;;;;27.48;28.06;101311.56;5060243;28;20060;-70
2022/07/27 10:44:25;;;;;;;3.15;1.02;;;;;;;26.72;28.95;101303.13;5050004;28;20076;-70
2022/07/27 10:46:55;;;;;;;6.93;1.00;;;;;;;25.88;31.80;101314.16;5044963;28;20048;-70
2022/07/27 10:49:24;;;;;;;6.47;1.10;;;;;;;25.49;33.03;101321.03;5046128;28;20068;-70
2022/07/27 10:51:52;;;;;;;5.32;1.23;;;;;;;24.95;34.60;101319.56;5062129;28;20509;-70
2022/07/27 10:54:21;;;;;;;5.03;1.15;;;;;;;24.81;34.20;101323.66;5064857;28;20172;-70
2022/07/27 10:56:49;;;;;;;4.32;0.90;;;;;;;25.07;34.46;101327.22;5069574;28;20046;-70
2022/07/27 10:59:49;;;;;;;7.28;1.63;;;;;;;25.20;33.31;101330.28;5081801;28;20388;-71
2022/07/27 11:02:18;;;;;;;7.93;1.00;;;;;;;25.07;32.86;101323.69;5084641;28;20047;-69
2022/07/27 11:04:47;;;;;;;5.80;0.95;;;;;;;25.57;35.83;101323.81;5082402;28;20078;-69
2022/07/27 11:07:16;;;;;;;6.72;1.50;;;;;;;25.24;36.14;101325.44;5045766;28;20053;-69
2022/07/27 11:09:43;;;;;;;6.22;1.20;;;;;;;25.29;32.96;101330.34;5061193;28;20048;-68
2022/07/27 11:12:11;;;;;;;3.53;1.27;;;;;;;25.70;32.11;101317.97;5053403;28;20044;-68
2022/07/27 11:14:45;;;;;;;6.10;1.55;;;;;;;26.31;30.96;101317.63;5058412;28;20086;-69
2022/07/27 11:17:12;;;;;;;4.10;1.20;;;;;;;26.47;30.52;101313.06;5055853;28;20386;-68
2022/07/27 11:19:40;;;;;;;4.90;1.05;;;;;;;26.27;30.29;101324.34;5060597;28;20094;-68
2022/07/27 11:22:07;;;;;;;4.10;1.00;;;;;;;25.82;31.73;101313.97;5064359;28;20044;-68
2022/07/27 11:24:35;;;;;;;4.90;1.00;;;;;;;25.28;33.48;101324.13;5063837;28;20044;-69
2022/07/27 11:27:02;;;;;;;3.08;0.75;;;;;;;25.43;32.60;101313.63;5066007;28;20041;-68
2022/07/27 11:29:32;;;;;;;3.65;1.10;;;;;;;25.79;32.46;101317.84;5055721;28;20045;-69
2022/07/27 11:31:59;;;;;;;5.57;1.00;;;;;;;25.96;31.87;101306.09;5064114;28;20054;-68